Terminal Aerodrome Forecast
Issued by NWS

Home | Current Version | Previous Version | Text Only | Print | Product List | Glossary On
Versions: 1 2 3 4 5 6 7 8 9 10 11 12 13 14 15 16 17 18 19 20 21 22 23 24 25 26 27 28 29 30 31 32 33 34 35 36 37 38 39 40 41 42 43 44
558
FTUS44 KHGX 202105 AAA
TAFCXO
TAF AMD
KCXO 202105Z 2021/2118 VRB04KT P6SM VCTS SCT035CB
      TEMPO 2022/2102 VRB15G35KT 3SM TSRA BR BKN015CB
     FM210300 16002KT 6SM BR VCSH BKN007 OVC030
     FM210600 16002KT 3SM BR OVC005
     FM211200 19004KT 1SM BR OVC004
     FM211500 21006KT 4SM BR SCT005 OVC015=

USA.gov is the U.S. government's official web portal to all federal, state and local government web resources and services.